Avalon Express — WDD7919 — position and weather

sailwx.info

Track history (hours):
 
Tides and Currents Weather Stations Pressure Air Temp Water Temp Dewpoint Dewpoint Depression Visibility Wind Speed Wind Dir Waves Ship Positions

Avalon Express

Owner: RGWT INC, San Pedro, CA. More information available from US FCC via Universal Licensing System and Coast Guard Vessel Documentation Center.

Last reported at 2016-Dec-06 02:14 UTC. Time now 2016-Dec-09 09:47 UTC.
Position N 33°43' W 118°16'.

Type: High speed craft. MMSI: 367192940.

Date/timePositionNaut miles runAvg speedWind from/ knotsBaromVisibWave heightAir tempDewpointWater temp
2016-Dec-06 02:14N 33°43' W 118°16'1624.2
2016-Dec-06 01:34N 33°27' W 118°18'6 6.0
2016-Dec-06 00:32N 33°26' W 118°25'20 6.3
2016-Dec-05 21:20N 33°45' W 118°16'1 0.9
2016-Dec-05 20:33N 33°44' W 118°17'2311.6
2016-Dec-05 18:32N 33°21' W 118°19'1515.6
2016-Dec-05 17:34N 33°36' W 118°16'9 9.0
2016-Dec-05 16:33N 33°45' W 118°16'0 0.0
2016-Dec-05 15:33N 33°45' W 118°16'0 0.0
2016-Dec-05 14:33N 33°45' W 118°16'0 0.0
2016-Dec-05 03:14N 33°45' W 118°16'1 1.2
2016-Dec-05 02:28N 33°44' W 118°17'1820.4
2016-Dec-05 01:34N 33°26' W 118°18'9 8.8
2016-Dec-05 00:34N 33°27' W 118°28'1110.8
2016-Dec-04 23:33N 33°35' W 118°20'1010.0
2016-Dec-04 22:33N 33°45' W 118°16'0 0.1
2016-Dec-04 20:33N 33°45' W 118°17'2311.6
2016-Dec-04 18:33N 33°22' W 118°20'1514.6
2016-Dec-04 17:33N 33°36' W 118°16'9 8.8
2016-Dec-04 16:33N 33°45' W 118°16'0 0.0
2016-Dec-04 15:33N 33°45' W 118°16'0 0.0
2016-Dec-04 14:33N 33°45' W 118°16'0 0.0
2016-Dec-04 13:33N 33°45' W 118°16'0 0.0
2016-Dec-04 02:33N 33°45' W 118°16'1818.0
2016-Dec-04 01:33N 33°27' W 118°18'11 5.2
2016-Dec-03 23:25N 33°38' W 118°18'7 7.3
2016-Dec-03 22:29N 33°45' W 118°16'0 0.0
2016-Dec-03 21:34N 33°45' W 118°16'1 1.3
2016-Dec-03 20:28N 33°44' W 118°16'2311.8
2016-Dec-03 18:33N 33°21' W 118°19'  
2016-Dec-01 02:17N 33°44' W 118°16'1622.7
2016-Dec-01 01:33N 33°27' W 118°18'5 5.3
2016-Dec-01 00:33N 33°26' W 118°24'9 9.3
2016-Nov-30 23:32N 33°35' W 118°21'11 7.5
2016-Nov-30 22:07N 33°45' W 118°16'0 0.0
2016-Nov-30 14:32N 33°45' W 118°16'24 0.5
2016-Nov-28 18:33N 33°21' W 118°19'1413.8
2016-Nov-28 17:32N 33°35' W 118°16'15 0.7
2016-Nov-27 20:32N 33°21' W 118°19'24 0.6
2016-Nov-26 04:06N 33°45' W 118°16'0 0.0
2016-Nov-26 03:34N 33°45' W 118°16'0 0.0
2016-Nov-26 02:33N 33°45' W 118°16'  
Track history (hours):
 
Tides and Currents Weather Stations Pressure Air Temp Water Temp Dewpoint Dewpoint Depression Visibility Wind Speed Wind Dir Waves Ship Positions

Avalon Express

Owner: RGWT INC, San Pedro, CA. More information available from US FCC via Universal Licensing System and Coast Guard Vessel Documentation Center.

Last reported at 2016-Dec-06 02:14 UTC. Time now 2016-Dec-09 09:47 UTC.
Position N 33°43' W 118°16'.

Type: High speed craft. MMSI: 367192940.

Date/timePositionNaut miles runAvg speedWind from/ knotsBaromVisibWave heightAir tempDewpointWater temp
2016-Dec-06 02:14N 33°43' W 118°16'1624.2
2016-Dec-06 01:34N 33°27' W 118°18'6 6.0
2016-Dec-06 00:32N 33°26' W 118°25'20 6.3
2016-Dec-05 21:20N 33°45' W 118°16'1 0.9
2016-Dec-05 20:33N 33°44' W 118°17'2311.6
2016-Dec-05 18:32N 33°21' W 118°19'1515.6
2016-Dec-05 17:34N 33°36' W 118°16'9 9.0
2016-Dec-05 16:33N 33°45' W 118°16'0 0.0
2016-Dec-05 15:33N 33°45' W 118°16'0 0.0
2016-Dec-05 14:33N 33°45' W 118°16'0 0.0
2016-Dec-05 03:14N 33°45' W 118°16'1 1.2
2016-Dec-05 02:28N 33°44' W 118°17'1820.4
2016-Dec-05 01:34N 33°26' W 118°18'9 8.8
2016-Dec-05 00:34N 33°27' W 118°28'1110.8
2016-Dec-04 23:33N 33°35' W 118°20'1010.0
2016-Dec-04 22:33N 33°45' W 118°16'0 0.1
2016-Dec-04 20:33N 33°45' W 118°17'2311.6
2016-Dec-04 18:33N 33°22' W 118°20'1514.6
2016-Dec-04 17:33N 33°36' W 118°16'9 8.8
2016-Dec-04 16:33N 33°45' W 118°16'0 0.0
2016-Dec-04 15:33N 33°45' W 118°16'0 0.0
2016-Dec-04 14:33N 33°45' W 118°16'0 0.0
2016-Dec-04 13:33N 33°45' W 118°16'0 0.0
2016-Dec-04 02:33N 33°45' W 118°16'1818.0
2016-Dec-04 01:33N 33°27' W 118°18'11 5.2
2016-Dec-03 23:25N 33°38' W 118°18'7 7.3
2016-Dec-03 22:29N 33°45' W 118°16'0 0.0
2016-Dec-03 21:34N 33°45' W 118°16'1 1.3
2016-Dec-03 20:28N 33°44' W 118°16'2311.8
2016-Dec-03 18:33N 33°21' W 118°19'  
2016-Dec-01 02:17N 33°44' W 118°16'1622.7
2016-Dec-01 01:33N 33°27' W 118°18'5 5.3
2016-Dec-01 00:33N 33°26' W 118°24'9 9.3
2016-Nov-30 23:32N 33°35' W 118°21'11 7.5
2016-Nov-30 22:07N 33°45' W 118°16'0 0.0
2016-Nov-30 14:32N 33°45' W 118°16'24 0.5
2016-Nov-28 18:33N 33°21' W 118°19'1413.8
2016-Nov-28 17:32N 33°35' W 118°16'15 0.7
2016-Nov-27 20:32N 33°21' W 118°19'24 0.6
2016-Nov-26 04:06N 33°45' W 118°16'0 0.0
2016-Nov-26 03:34N 33°45' W 118°16'0 0.0
2016-Nov-26 02:33N 33°45' W 118°16'  

Dump ship's entire track history